sensor_id;sensor_type;location;lat;lon;timestamp;temperature;humidity
21489;DHT22;10906;45.194;5.684;2023-04-19T05:05:11;8.70;99.90
21489;DHT22;10906;45.194;5.684;2023-04-19T05:07:59;8.60;99.90
21489;DHT22;10906;45.194;5.684;2023-04-19T05:10:50;8.70;99.90
21489;DHT22;10906;45.194;5.684;2023-04-19T05:13:41;8.60;99.90
21489;DHT22;10906;45.194;5.684;2023-04-19T05:16:26;8.60;99.90
21489;DHT22;10906;45.194;5.684;2023-04-19T05:19:21;8.50;99.90
21489;DHT22;10906;45.194;5.684;2023-04-19T05:22:05;8.40;99.90
21489;DHT22;10906;45.194;5.684;2023-04-19T05:25:14;8.40;99.90
21489;DHT22;10906;45.194;5.684;2023-04-19T05:28:04;7.50;99.90
21489;DHT22;10906;45.194;5.684;2023-04-19T05:31:08;8.50;99.90
21489;DHT22;10906;45.194;5.684;2023-04-19T05:33:58;6.70;99.90
21489;DHT22;10906;45.194;5.684;2023-04-19T05:37:09;8.50;99.90
21489;DHT22;10906;45.194;5.684;2023-04-19T05:39:59;8.50;99.90
21489;DHT22;10906;45.194;5.684;2023-04-19T05:42:49;8.50;99.90
21489;DHT22;10906;45.194;5.684;2023-04-19T05:45:54;8.60;99.90
21489;DHT22;10906;45.194;5.684;2023-04-19T05:48:39;8.50;99.90
21489;DHT22;10906;45.194;5.684;2023-04-19T05:51:28;8.90;99.90
21489;DHT22;10906;45.194;5.684;2023-04-19T05:57:34;8.60;99.90
21489;DHT22;10906;45.194;5.684;2023-04-19T06:19:19;9.30;99.90
21489;DHT22;10906;45.194;5.684;2023-04-19T06:40:11;10.40;99.90
21489;DHT22;10906;45.194;5.684;2023-04-19T06:47:28;10.00;99.90
21489;DHT22;10906;45.194;5.684;2023-04-19T06:50:24;10.00;99.90
21489;DHT22;10906;45.194;5.684;2023-04-19T07:13:57;10.40;99.90
21489;DHT22;10906;45.194;5.684;2023-04-19T07:17:12;10.60;99.90
21489;DHT22;10906;45.194;5.684;2023-04-19T07:20:13;9.80;99.90
21489;DHT22;10906;45.194;5.684;2023-04-19T07:22:59;9.60;99.90
21489;DHT22;10906;45.194;5.684;2023-04-19T07:25:44;11.00;99.90
21489;DHT22;10906;45.194;5.684;2023-04-19T07:28:28;11.20;99.90
21489;DHT22;10906;45.194;5.684;2023-04-19T07:31:16;11.30;99.90
21489;DHT22;10906;45.194;5.684;2023-04-19T07:34:01;11.40;99.90
21489;DHT22;10906;45.194;5.684;2023-04-19T07:36:48;11.50;99.90
21489;DHT22;10906;45.194;5.684;2023-04-19T07:39:32;11.70;99.90
21489;DHT22;10906;45.194;5.684;2023-04-19T07:42:19;11.90;99.90
21489;DHT22;10906;45.194;5.684;2023-04-19T07:47:40;12.00;99.90
21489;DHT22;10906;45.194;5.684;2023-04-19T07:50:25;12.20;99.90
21489;DHT22;10906;45.194;5.684;2023-04-19T07:53:16;12.20;99.90
21489;DHT22;10906;45.194;5.684;2023-04-19T07:58:38;12.40;99.90
21489;DHT22;10906;45.194;5.684;2023-04-19T08:01:32;12.60;99.90
21489;DHT22;10906;45.194;5.684;2023-04-19T08:04:16;12.70;99.90
21489;DHT22;10906;45.194;5.684;2023-04-19T08:07:02;12.90;99.90
21489;DHT22;10906;45.194;5.684;2023-04-19T08:10:11;13.20;99.90
21489;DHT22;10906;45.194;5.684;2023-04-19T08:12:56;13.50;99.90
21489;DHT22;10906;45.194;5.684;2023-04-19T08:15:40;13.60;99.90
21489;DHT22;10906;45.194;5.684;2023-04-19T08:18:37;13.70;99.90
21489;DHT22;10906;45.194;5.684;2023-04-19T08:21:22;13.90;99.90
21489;DHT22;10906;45.194;5.684;2023-04-19T08:24:09;13.90;99.90
21489;DHT22;10906;45.194;5.684;2023-04-19T08:27:00;14.00;99.90
21489;DHT22;10906;45.194;5.684;2023-04-19T08:30:00;14.20;99.90
21489;DHT22;10906;45.194;5.684;2023-04-19T08:33:32;14.70;99.90
21489;DHT22;10906;45.194;5.684;2023-04-19T08:39:58;14.70;99.90
21489;DHT22;10906;45.194;5.684;2023-04-19T08:46:43;13.70;99.90
21489;DHT22;10906;45.194;5.684;2023-04-19T08:55:07;15.40;99.90
21489;DHT22;10906;45.194;5.684;2023-04-19T09:05:02;15.80;99.90
21489;DHT22;10906;45.194;5.684;2023-04-19T09:07:46;15.80;99.90
21489;DHT22;10906;45.194;5.684;2023-04-19T09:10:31;15.90;99.90
21489;DHT22;10906;45.194;5.684;2023-04-19T09:20:13;17.20;99.90
21489;DHT22;10906;45.194;5.684;2023-04-19T09:23:17;16.40;99.90
21489;DHT22;10906;45.194;5.684;2023-04-19T09:26:31;16.50;99.90
21489;DHT22;10906;45.194;5.684;2023-04-19T09:32:06;16.90;99.90
21489;DHT22;10906;45.194;5.684;2023-04-19T09:41:13;17.20;98.40
21489;DHT22;10906;45.194;5.684;2023-04-19T09:44:18;17.50;99.10
21489;DHT22;10906;45.194;5.684;2023-04-19T09:50:53;18.10;97.50
21489;DHT22;10906;45.194;5.684;2023-04-19T09:53:39;18.10;98.50
21489;DHT22;10906;45.194;5.684;2023-04-19T09:56:25;18.10;98.80
21489;DHT22;10906;45.194;5.684;2023-04-19T09:59:33;18.10;98.30
21489;DHT22;10906;45.194;5.684;2023-04-19T10:02:30;18.50;95.70
21489;DHT22;10906;45.194;5.684;2023-04-19T10:05:19;18.90;97.20
21489;DHT22;10906;45.194;5.684;2023-04-19T11:04:07;20.70;92.00
21489;DHT22;10906;45.194;5.684;2023-04-19T11:07:04;20.70;91.10
21489;DHT22;10906;45.194;5.684;2023-04-19T11:25:14;20.40;86.60
21489;DHT22;10906;45.194;5.684;2023-04-19T11:28:05;21.40;87.20
21489;DHT22;10906;45.194;5.684;2023-04-19T11:57:46;23.40;83.00
21489;DHT22;10906;45.194;5.684;2023-04-19T12:05:24;22.70;81.70
21489;DHT22;10906;45.194;5.684;2023-04-19T12:08:17;22.60;81.70
21489;DHT22;10906;45.194;5.684;2023-04-19T12:11:16;22.70;84.00
21489;DHT22;10906;45.194;5.684;2023-04-19T12:19:46;23.40;79.80
21489;DHT22;10906;45.194;5.684;2023-04-19T12:22:30;23.70;79.30
21489;DHT22;10906;45.194;5.684;2023-04-19T12:25:14;24.00;78.10
21489;DHT22;10906;45.194;5.684;2023-04-19T12:28:01;24.10;75.80
21489;DHT22;10906;45.194;5.684;2023-04-19T12:30:46;24.20;74.20
21489;DHT22;10906;45.194;5.684;2023-04-19T12:33:30;24.10;72.00
21489;DHT22;10906;45.194;5.684;2023-04-19T12:36:18;24.20;71.70
21489;DHT22;10906;45.194;5.684;2023-04-19T12:39:03;24.30;71.00
21489;DHT22;10906;45.194;5.684;2023-04-19T12:41:47;24.50;70.80
21489;DHT22;10906;45.194;5.684;2023-04-19T12:44:32;24.80;69.10
21489;DHT22;10906;45.194;5.684;2023-04-19T12:47:17;24.70;65.20
21489;DHT22;10906;45.194;5.684;2023-04-19T12:50:01;24.70;64.60
21489;DHT22;10906;45.194;5.684;2023-04-19T12:52:45;24.80;65.10
21489;DHT22;10906;45.194;5.684;2023-04-19T12:55:30;24.90;63.00
21489;DHT22;10906;45.194;5.684;2023-04-19T12:58:18;25.00;63.10
21489;DHT22;10906;45.194;5.684;2023-04-19T13:01:04;25.20;63.40
21489;DHT22;10906;45.194;5.684;2023-04-19T13:03:49;25.40;61.80
21489;DHT22;10906;45.194;5.684;2023-04-19T13:06:33;25.40;60.20
21489;DHT22;10906;45.194;5.684;2023-04-19T13:09:18;25.40;58.80
21489;DHT22;10906;45.194;5.684;2023-04-19T13:12:04;25.40;58.20
21489;DHT22;10906;45.194;5.684;2023-04-19T13:14:49;25.40;58.40
21489;DHT22;10906;45.194;5.684;2023-04-19T13:17:35;25.70;58.90
21489;DHT22;10906;45.194;5.684;2023-04-19T13:20:21;26.00;58.50
21489;DHT22;10906;45.194;5.684;2023-04-19T13:23:05;26.10;58.00
21489;DHT22;10906;45.194;5.684;2023-04-19T13:25:50;26.00;57.00
21489;DHT22;10906;45.194;5.684;2023-04-19T13:28:35;26.10;57.30
21489;DHT22;10906;45.194;5.684;2023-04-19T13:31:19;26.10;56.50
21489;DHT22;10906;45.194;5.684;2023-04-19T13:34:03;26.20;56.30
21489;DHT22;10906;45.194;5.684;2023-04-19T13:36:48;26.40;56.40
21489;DHT22;10906;45.194;5.684;2023-04-19T13:39:33;26.60;55.90
21489;DHT22;10906;45.194;5.684;2023-04-19T13:42:17;26.70;56.00
21489;DHT22;10906;45.194;5.684;2023-04-19T13:45:02;26.50;54.40
21489;DHT22;10906;45.194;5.684;2023-04-19T13:47:48;26.40;54.50
21489;DHT22;10906;45.194;5.684;2023-04-19T13:50:33;26.30;54.20
21489;DHT22;10906;45.194;5.684;2023-04-19T13:53:19;26.20;54.50
21489;DHT22;10906;45.194;5.684;2023-04-19T13:56:03;26.10;54.80
21489;DHT22;10906;45.194;5.684;2023-04-19T13:58:48;26.30;54.70
21489;DHT22;10906;45.194;5.684;2023-04-19T14:01:32;26.50;55.40
21489;DHT22;10906;45.194;5.684;2023-04-19T14:04:16;26.70;55.90
21489;DHT22;10906;45.194;5.684;2023-04-19T14:07:00;26.90;54.60
21489;DHT22;10906;45.194;5.684;2023-04-19T14:09:45;27.10;54.10
21489;DHT22;10906;45.194;5.684;2023-04-19T14:12:29;27.20;54.40
21489;DHT22;10906;45.194;5.684;2023-04-19T14:15:13;27.30;53.10
21489;DHT22;10906;45.194;5.684;2023-04-19T14:17:59;27.40;53.40
21489;DHT22;10906;45.194;5.684;2023-04-19T14:20:43;27.70;54.20
21489;DHT22;10906;45.194;5.684;2023-04-19T14:23:28;27.60;53.30
21489;DHT22;10906;45.194;5.684;2023-04-19T14:26:13;27.50;53.70
21489;DHT22;10906;45.194;5.684;2023-04-19T14:28:58;27.30;54.10
21489;DHT22;10906;45.194;5.684;2023-04-19T14:31:42;27.30;54.10
21489;DHT22;10906;45.194;5.684;2023-04-19T14:34:26;27.40;53.60
21489;DHT22;10906;45.194;5.684;2023-04-19T14:37:11;27.70;54.60
21489;DHT22;10906;45.194;5.684;2023-04-19T14:39:56;27.70;53.90
21489;DHT22;10906;45.194;5.684;2023-04-19T14:42:40;27.60;54.20
21489;DHT22;10906;45.194;5.684;2023-04-19T14:45:24;27.30;54.00
21489;DHT22;10906;45.194;5.684;2023-04-19T14:48:10;27.10;54.30
21489;DHT22;10906;45.194;5.684;2023-04-19T14:50:54;27.00;54.60
21489;DHT22;10906;45.194;5.684;2023-04-19T14:53:39;26.70;54.30
21489;DHT22;10906;45.194;5.684;2023-04-19T14:56:23;26.50;54.50
21489;DHT22;10906;45.194;5.684;2023-04-19T14:59:08;26.60;54.80
21489;DHT22;10906;45.194;5.684;2023-04-19T15:01:52;26.60;53.90
21489;DHT22;10906;45.194;5.684;2023-04-19T15:04:37;26.50;53.60
21489;DHT22;10906;45.194;5.684;2023-04-19T15:07:21;26.60;53.10
21489;DHT22;10906;45.194;5.684;2023-04-19T15:10:06;27.00;52.40
21489;DHT22;10906;45.194;5.684;2023-04-19T15:12:51;27.40;51.90
21489;DHT22;10906;45.194;5.684;2023-04-19T15:15:35;27.70;50.50
21489;DHT22;10906;45.194;5.684;2023-04-19T15:18:20;28.40;50.50
21489;DHT22;10906;45.194;5.684;2023-04-19T15:21:04;28.90;49.30
21489;DHT22;10906;45.194;5.684;2023-04-19T15:23:49;28.60;48.70
21489;DHT22;10906;45.194;5.684;2023-04-19T15:26:34;28.70;49.00
21489;DHT22;10906;45.194;5.684;2023-04-19T15:29:18;28.80;48.70
21489;DHT22;10906;45.194;5.684;2023-04-19T15:32:03;29.00;48.30
21489;DHT22;10906;45.194;5.684;2023-04-19T15:34:48;28.70;48.00
21489;DHT22;10906;45.194;5.684;2023-04-19T15:37:35;28.50;48.70
21489;DHT22;10906;45.194;5.684;2023-04-19T15:40:21;28.50;48.40
21489;DHT22;10906;45.194;5.684;2023-04-19T15:43:07;27.80;48.30
21489;DHT22;10906;45.194;5.684;2023-04-19T15:45:52;27.20;49.10
21489;DHT22;10906;45.194;5.684;2023-04-19T15:48:36;26.00;50.40
21489;DHT22;10906;45.194;5.684;2023-04-19T15:51:21;25.00;51.50
21489;DHT22;10906;45.194;5.684;2023-04-19T15:54:05;24.40;52.20
21489;DHT22;10906;45.194;5.684;2023-04-19T15:56:50;23.90;53.20
21489;DHT22;10906;45.194;5.684;2023-04-19T15:59:34;23.60;53.70
21489;DHT22;10906;45.194;5.684;2023-04-19T16:02:19;23.60;53.80
21489;DHT22;10906;45.194;5.684;2023-04-19T16:05:04;23.80;53.90
21489;DHT22;10906;45.194;5.684;2023-04-19T16:08:03;23.90;53.40
21489;DHT22;10906;45.194;5.684;2023-04-19T16:10:48;24.10;53.70
21489;DHT22;10906;45.194;5.684;2023-04-19T16:13:33;24.20;53.70
21489;DHT22;10906;45.194;5.684;2023-04-19T16:16:17;24.20;53.60
21489;DHT22;10906;45.194;5.684;2023-04-19T16:19:02;24.10;54.00
21489;DHT22;10906;45.194;5.684;2023-04-19T16:21:46;24.00;53.60
21489;DHT22;10906;45.194;5.684;2023-04-19T16:24:30;23.80;53.30
21489;DHT22;10906;45.194;5.684;2023-04-19T16:27:15;23.70;53.80
21489;DHT22;10906;45.194;5.684;2023-04-19T16:30:00;23.70;53.90
21489;DHT22;10906;45.194;5.684;2023-04-19T16:32:44;23.70;54.60
21489;DHT22;10906;45.194;5.684;2023-04-19T16:35:28;23.60;53.80
21489;DHT22;10906;45.194;5.684;2023-04-19T16:38:13;23.50;53.80
21489;DHT22;10906;45.194;5.684;2023-04-19T16:40:57;23.50;54.00
21489;DHT22;10906;45.194;5.684;2023-04-19T16:43:43;23.40;53.60
21489;DHT22;10906;45.194;5.684;2023-04-19T16:46:28;23.30;53.90
21489;DHT22;10906;45.194;5.684;2023-04-19T16:49:12;23.10;53.90
21489;DHT22;10906;45.194;5.684;2023-04-19T16:51:56;22.60;53.90
21489;DHT22;10906;45.194;5.684;2023-04-19T16:54:41;22.30;54.70
21489;DHT22;10906;45.194;5.684;2023-04-19T16:57:27;21.90;54.90
21489;DHT22;10906;45.194;5.684;2023-04-19T17:00:11;21.80;55.50
21489;DHT22;10906;45.194;5.684;2023-04-19T17:02:56;21.60;55.70
21489;DHT22;10906;45.194;5.684;2023-04-19T17:05:41;21.50;57.00
21489;DHT22;10906;45.194;5.684;2023-04-19T17:08:25;21.30;56.30
21489;DHT22;10906;45.194;5.684;2023-04-19T17:11:10;21.40;57.00
21489;DHT22;10906;45.194;5.684;2023-04-19T17:13:54;21.10;57.20
21489;DHT22;10906;45.194;5.684;2023-04-19T17:16:38;21.00;58.00
21489;DHT22;10906;45.194;5.684;2023-04-19T17:19:23;20.80;58.00
21489;DHT22;10906;45.194;5.684;2023-04-19T17:22:07;20.80;58.60
21489;DHT22;10906;45.194;5.684;2023-04-19T17:24:51;20.70;59.20
21489;DHT22;10906;45.194;5.684;2023-04-19T17:27:42;20.60;59.30
21489;DHT22;10906;45.194;5.684;2023-04-19T17:30:26;20.50;59.60
21489;DHT22;10906;45.194;5.684;2023-04-19T17:33:11;20.40;59.90
21489;DHT22;10906;45.194;5.684;2023-04-19T17:35:58;20.40;60.80
21489;DHT22;10906;45.194;5.684;2023-04-19T17:38:42;20.30;61.20
21489;DHT22;10906;45.194;5.684;2023-04-19T17:41:27;20.30;61.50
21489;DHT22;10906;45.194;5.684;2023-04-19T17:44:11;20.20;62.10
21489;DHT22;10906;45.194;5.684;2023-04-19T17:46:56;20.10;62.70
21489;DHT22;10906;45.194;5.684;2023-04-19T17:49:44;20.00;63.50
21489;DHT22;10906;45.194;5.684;2023-04-19T17:52:28;19.90;63.50
21489;DHT22;10906;45.194;5.684;2023-04-19T17:55:13;19.80;63.40
21489;DHT22;10906;45.194;5.684;2023-04-19T17:57:57;19.70;64.00
21489;DHT22;10906;45.194;5.684;2023-04-19T18:00:41;19.60;64.30
21489;DHT22;10906;45.194;5.684;2023-04-19T18:03:25;19.50;64.50
21489;DHT22;10906;45.194;5.684;2023-04-19T18:06:10;19.50;64.80
21489;DHT22;10906;45.194;5.684;2023-04-19T18:08:55;19.30;65.20
21489;DHT22;10906;45.194;5.684;2023-04-19T18:11:39;19.30;65.60
21489;DHT22;10906;45.194;5.684;2023-04-19T18:21:41;18.00;65.50
21489;DHT22;10906;45.194;5.684;2023-04-19T18:24:49;17.00;65.40
21489;DHT22;10906;45.194;5.684;2023-04-19T18:28:14;18.90;69.40
21489;DHT22;10906;45.194;5.684;2023-04-19T18:49:55;18.30;68.90
21489;DHT22;10906;45.194;5.684;2023-04-19T18:56:41;18.10;70.70
21489;DHT22;10906;45.194;5.684;2023-04-19T18:59:34;18.00;73.00
21489;DHT22;10906;45.194;5.684;2023-04-19T19:02:18;18.00;73.30
21489;DHT22;10906;45.194;5.684;2023-04-19T19:05:12;18.00;74.00
21489;DHT22;10906;45.194;5.684;2023-04-19T19:08:11;17.90;73.20
21489;DHT22;10906;45.194;5.684;2023-04-19T19:11:00;17.90;75.80
21489;DHT22;10906;45.194;5.684;2023-04-19T19:14:23;17.90;73.70
21489;DHT22;10906;45.194;5.684;2023-04-19T19:17:29;17.60;74.50
21489;DHT22;10906;45.194;5.684;2023-04-19T19:20:19;17.60;74.40
21489;DHT22;10906;45.194;5.684;2023-04-19T19:23:07;17.50;75.60
21489;DHT22;10906;45.194;5.684;2023-04-19T19:25:55;17.50;73.50
21489;DHT22;10906;45.194;5.684;2023-04-19T19:28:50;17.50;76.40
21489;DHT22;10906;45.194;5.684;2023-04-19T19:31:35;17.30;74.70
21489;DHT22;10906;45.194;5.684;2023-04-19T19:34:23;17.20;75.10
21489;DHT22;10906;45.194;5.684;2023-04-19T19:46:07;16.90;74.40
21489;DHT22;10906;45.194;5.684;2023-04-19T19:48:51;16.90;74.70
21489;DHT22;10906;45.194;5.684;2023-04-19T19:51:36;16.90;74.70
21489;DHT22;10906;45.194;5.684;2023-04-19T19:54:20;16.80;75.10
21489;DHT22;10906;45.194;5.684;2023-04-19T19:57:04;16.70;77.70
21489;DHT22;10906;45.194;5.684;2023-04-19T19:59:52;17.10;76.70
21489;DHT22;10906;45.194;5.684;2023-04-19T20:02:37;16.50;77.00
21489;DHT22;10906;45.194;5.684;2023-04-19T20:05:21;16.40;77.00
21489;DHT22;10906;45.194;5.684;2023-04-19T20:08:08;16.40;77.70
21489;DHT22;10906;45.194;5.684;2023-04-19T20:10:53;16.30;78.00
21489;DHT22;10906;45.194;5.684;2023-04-19T20:13:37;16.30;77.90
21489;DHT22;10906;45.194;5.684;2023-04-19T20:16:22;16.20;78.30
21489;DHT22;10906;45.194;5.684;2023-04-19T20:19:06;16.10;79.20
21489;DHT22;10906;45.194;5.684;2023-04-19T20:21:52;16.10;79.00
21489;DHT22;10906;45.194;5.684;2023-04-19T20:24:37;16.10;78.60
21489;DHT22;10906;45.194;5.684;2023-04-19T20:27:22;16.10;79.50
21489;DHT22;10906;45.194;5.684;2023-04-19T20:30:09;16.00;79.40
21489;DHT22;10906;45.194;5.684;2023-04-19T20:32:57;16.00;80.20
21489;DHT22;10906;45.194;5.684;2023-04-19T20:35:47;15.90;81.90
21489;DHT22;10906;45.194;5.684;2023-04-19T20:38:34;15.90;79.90
21489;DHT22;10906;45.194;5.684;2023-04-19T20:41:18;15.70;80.60
21489;DHT22;10906;45.194;5.684;2023-04-19T20:44:05;15.60;79.80
21489;DHT22;10906;45.194;5.684;2023-04-19T20:46:49;15.50;79.70
21489;DHT22;10906;45.194;5.684;2023-04-19T20:49:35;15.30;79.90
21489;DHT22;10906;45.194;5.684;2023-04-19T20:52:19;15.20;80.60
21489;DHT22;10906;45.194;5.684;2023-04-19T20:55:05;15.30;80.80
21489;DHT22;10906;45.194;5.684;2023-04-19T20:57:49;15.30;80.80
21489;DHT22;10906;45.194;5.684;2023-04-19T21:00:34;15.30;81.20
21489;DHT22;10906;45.194;5.684;2023-04-19T21:03:18;16.70;82.90
21489;DHT22;10906;45.194;5.684;2023-04-19T21:06:06;15.10;80.20
21489;DHT22;10906;45.194;5.684;2023-04-19T21:08:50;14.90;80.60
21489;DHT22;10906;45.194;5.684;2023-04-19T21:11:42;14.80;83.30
21489;DHT22;10906;45.194;5.684;2023-04-19T21:14:28;14.90;81.90
21489;DHT22;10906;45.194;5.684;2023-04-19T21:17:16;14.90;82.20
21489;DHT22;10906;45.194;5.684;2023-04-19T21:20:00;14.90;82.50
21489;DHT22;10906;45.194;5.684;2023-04-19T21:22:46;14.90;82.40
21489;DHT22;10906;45.194;5.684;2023-04-19T21:25:34;14.90;84.40
21489;DHT22;10906;45.194;5.684;2023-04-19T21:28:30;14.90;84.30
21489;DHT22;10906;45.194;5.684;2023-04-19T21:31:16;14.90;83.70
21489;DHT22;10906;45.194;5.684;2023-04-19T21:34:01;14.80;83.00
21489;DHT22;10906;45.194;5.684;2023-04-19T21:36:47;14.80;85.60
21489;DHT22;10906;45.194;5.684;2023-04-19T21:39:32;14.70;83.90
21489;DHT22;10906;45.194;5.684;2023-04-19T21:42:17;14.70;84.10
21489;DHT22;10906;45.194;5.684;2023-04-19T21:45:02;14.60;84.20
21489;DHT22;10906;45.194;5.684;2023-04-19T21:47:49;14.60;84.20
21489;DHT22;10906;45.194;5.684;2023-04-19T21:50:34;14.60;84.50
21489;DHT22;10906;45.194;5.684;2023-04-19T21:53:21;14.60;85.60
21489;DHT22;10906;45.194;5.684;2023-04-19T21:56:05;14.60;84.70
21489;DHT22;10906;45.194;5.684;2023-04-19T21:58:50;14.50;84.60
